createdAt,value
2019-02-23T00:01:05.866Z,76.83
2019-02-23T00:03:42.323Z,75.64
2019-02-23T00:06:17.152Z,74.95
2019-02-23T00:08:52.017Z,74.22
2019-02-23T00:11:29.988Z,75.66
2019-02-23T00:14:05.326Z,76.60
2019-02-23T00:16:39.800Z,76.68
2019-02-23T00:19:24.454Z,74.61
2019-02-23T00:21:51.907Z,74.94
2019-02-23T00:24:26.339Z,74.99
2019-02-23T00:27:00.902Z,75.73
2019-02-23T00:29:35.431Z,75.30
2019-02-23T00:32:11.528Z,75.18
2019-02-23T00:34:46.124Z,75.70
2019-02-23T00:37:20.543Z,75.70
2019-02-23T00:39:55.048Z,75.59
2019-02-23T00:42:29.720Z,75.59
2019-02-23T00:45:03.662Z,74.14
2019-02-23T00:47:38.134Z,76.03
2019-02-23T00:50:12.815Z,76.03
2019-02-23T00:52:47.061Z,76.17
2019-02-23T00:55:21.711Z,75.93
2019-02-23T00:57:56.527Z,74.84
2019-02-23T01:00:31.117Z,74.84
2019-02-23T01:03:06.318Z,74.84
2019-02-23T01:05:40.812Z,74.99
2019-02-23T01:08:15.331Z,73.24
2019-02-23T01:10:57.803Z,74.22
2019-02-23T01:13:25.483Z,74.83
2019-02-23T01:16:01.843Z,75.15
2019-02-23T01:18:36.573Z,74.89
2019-02-23T01:21:10.630Z,75.85
2019-02-23T01:23:46.160Z,75.12
2019-02-23T01:26:20.801Z,74.80
2019-02-23T01:28:55.320Z,74.27
2019-02-23T01:31:29.794Z,73.57
2019-02-23T01:34:04.665Z,74.55
2019-02-23T01:36:39.152Z,75.97
2019-02-23T01:39:13.684Z,75.26
2019-02-23T01:41:47.274Z,76.28
2019-02-23T01:44:21.853Z,76.78
2019-02-23T01:46:56.157Z,75.57
2019-02-23T01:49:30.814Z,75.43
2019-02-23T01:52:05.603Z,76.16
2019-02-23T01:54:39.978Z,77.22
2019-02-23T01:57:14.676Z,77.22
2019-02-23T01:59:48.515Z,76.51
2019-02-23T02:02:23.032Z,75.82
2019-02-23T02:04:57.867Z,75.82
2019-02-23T02:07:32.433Z,75.27
2019-02-23T02:10:08.111Z,75.42
2019-02-23T02:12:42.801Z,75.23
2019-02-23T02:15:17.103Z,74.51
2019-02-23T02:17:51.643Z,75.17
2019-02-23T02:20:25.480Z,75.63
2019-02-23T02:22:59.820Z,76.68
2019-02-23T02:25:34.465Z,76.94
2019-02-23T02:28:08.789Z,77.09
2019-02-23T02:30:43.131Z,76.92
2019-02-23T02:33:17.650Z,76.30
2019-02-23T02:35:51.517Z,76.53
2019-02-23T02:38:26.161Z,76.27
2019-02-23T02:41:00.821Z,76.27
2019-02-23T02:43:35.419Z,76.15
2019-02-23T02:46:10.150Z,76.76
2019-02-23T02:48:44.713Z,76.55
2019-02-23T02:51:19.420Z,77.09
2019-02-23T02:53:54.072Z,77.26
2019-02-23T02:56:28.726Z,77.26
2019-02-23T02:59:03.429Z,77.29
2019-02-23T03:01:39.617Z,77.11
2019-02-23T03:04:14.051Z,77.07
2019-02-23T03:06:48.691Z,77.83
2019-02-23T03:09:22.292Z,77.46
2019-02-23T03:11:56.996Z,76.72
2019-02-23T03:14:31.834Z,77.18
2019-02-23T03:17:06.538Z,77.03
2019-02-23T03:19:42.023Z,75.46
2019-02-23T03:22:16.657Z,75.46
2019-02-23T03:24:51.821Z,76.33
2019-02-23T03:27:26.482Z,75.38
2019-02-23T03:30:01.031Z,76.57
2019-02-23T03:32:36.024Z,76.57
2019-02-23T03:35:10.677Z,75.87
2019-02-23T03:37:45.314Z,75.67
2019-02-23T03:40:19.702Z,74.60
2019-02-23T03:42:53.439Z,75.84
2019-02-23T03:45:27.815Z,75.95
2019-02-23T03:48:02.342Z,75.81
2019-02-23T03:50:48.400Z,74.95
2019-02-23T03:53:13.707Z,75.49
2019-02-23T03:55:47.571Z,74.17
2019-02-23T03:58:22.514Z,74.99
2019-02-23T04:00:57.147Z,75.26
2019-02-23T04:03:31.841Z,74.71
2019-02-23T04:06:07.434Z,74.57
2019-02-23T04:08:42.057Z,74.28
2019-02-23T04:11:16.541Z,74.16
2019-02-23T04:13:50.828Z,73.95
2019-02-23T04:16:25.321Z,74.74
2019-02-23T04:18:59.805Z,74.25
2019-02-23T04:21:34.524Z,73.91
2019-02-23T04:24:09.065Z,73.51
2019-02-23T04:26:43.528Z,73.51
2019-02-23T04:29:18.441Z,72.60
2019-02-23T04:31:52.796Z,72.60
2019-02-23T04:34:27.165Z,72.20
2019-02-23T04:37:01.536Z,71.08
2019-02-23T04:39:35.807Z,71.54
2019-02-23T04:42:10.125Z,71.17
2019-02-23T04:44:44.628Z,70.92
2019-02-23T04:47:18.450Z,70.31
2019-02-23T04:49:55.578Z,69.69
2019-02-23T04:52:30.116Z,70.07
2019-02-23T04:55:05.122Z,70.07
2019-02-23T04:57:39.530Z,70.24
2019-02-23T05:00:14.833Z,68.49
2019-02-23T05:02:49.321Z,68.49
2019-02-23T05:05:23.837Z,68.40
2019-02-23T05:07:58.534Z,67.60
2019-02-23T05:10:33.149Z,67.60
2019-02-23T05:13:08.571Z,67.60
2019-02-23T05:15:42.273Z,67.30
2019-02-23T05:18:16.822Z,67.60
2019-02-23T05:20:51.425Z,67.31
2019-02-23T05:23:25.721Z,67.44
2019-02-23T05:26:00.330Z,67.43
2019-02-23T05:28:34.793Z,67.15
2019-02-23T05:31:09.134Z,66.34
2019-02-23T05:33:43.525Z,66.95
2019-02-23T05:36:18.562Z,67.25
2019-02-23T05:38:53.143Z,67.67
2019-02-23T05:41:27.537Z,67.67
2019-02-23T05:44:01.879Z,67.20
2019-02-23T05:46:37.331Z,66.50
2019-02-23T05:49:11.682Z,65.71
2019-02-23T05:51:46.502Z,66.71
2019-02-23T05:54:21.670Z,66.45
2019-02-23T05:56:55.465Z,66.45
2019-02-23T05:59:29.973Z,67.17
2019-02-23T06:02:04.525Z,67.17
2019-02-23T06:04:38.383Z,67.52
2019-02-23T06:07:12.961Z,67.70
2019-02-23T06:09:47.521Z,66.39
2019-02-23T06:12:21.478Z,65.95
2019-02-23T06:14:57.044Z,66.08
2019-02-23T06:17:31.550Z,66.08
2019-02-23T06:20:07.338Z,67.47
2019-02-23T06:22:41.976Z,67.47
2019-02-23T06:25:17.173Z,67.03
2019-02-23T06:27:51.654Z,67.33
2019-02-23T06:30:25.633Z,67.80
2019-02-23T06:32:59.272Z,67.20
2019-02-23T06:35:33.825Z,67.57
2019-02-23T06:38:08.137Z,68.05
2019-02-23T06:40:42.830Z,68.29
2019-02-23T06:43:17.566Z,67.64
2019-02-23T06:45:51.474Z,68.13
2019-02-23T06:48:25.986Z,68.45
2019-02-23T06:51:00.536Z,67.83
2019-02-23T06:53:34.452Z,68.10
2019-02-23T06:56:09.539Z,68.61
2019-02-23T06:58:44.152Z,67.67
2019-02-23T07:01:18.619Z,67.67
2019-02-23T07:03:52.654Z,65.74
2019-02-23T07:06:27.733Z,66.62
2019-02-23T07:09:02.485Z,65.90
2019-02-23T07:11:38.323Z,65.85
2019-02-23T07:14:13.560Z,65.94
2019-02-23T07:16:47.274Z,65.37
2019-02-23T07:19:22.295Z,63.44
2019-02-23T07:21:56.844Z,62.50
2019-02-23T07:24:31.313Z,63.22
2019-02-23T07:27:05.806Z,62.20
2019-02-23T07:29:40.411Z,61.76
2019-02-23T07:32:15.060Z,60.46
2019-02-23T07:34:51.096Z,60.61
2019-02-23T07:37:25.883Z,59.88
2019-02-23T07:40:00.504Z,59.95
2019-02-23T07:42:34.992Z,58.85
2019-02-23T07:45:09.891Z,58.55
2019-02-23T07:47:45.310Z,58.13
2019-02-23T07:50:21.104Z,57.55
2019-02-23T07:52:55.647Z,56.91
2019-02-23T07:55:29.398Z,58.07
2019-02-23T07:58:04.568Z,57.05
2019-02-23T08:00:39.026Z,56.09
2019-02-23T08:03:13.724Z,56.09
2019-02-23T08:05:48.156Z,56.27
2019-02-23T08:08:23.090Z,55.54
2019-02-23T08:10:58.120Z,55.97
2019-02-23T08:13:32.801Z,55.96
2019-02-23T08:16:08.150Z,56.20
2019-02-23T08:18:44.562Z,56.07
2019-02-23T08:21:18.697Z,54.50
2019-02-23T08:23:53.153Z,54.50
2019-02-23T08:26:29.034Z,53.87
2019-02-23T08:29:03.838Z,52.77
2019-02-23T08:31:38.815Z,51.10
2019-02-23T08:34:13.648Z,43.68
2019-02-23T08:36:48.317Z,37.90
2019-02-23T08:39:22.789Z,34.33
2019-02-23T08:41:57.539Z,29.67
2019-02-23T08:44:33.053Z,30.72
2019-02-23T08:47:07.854Z,30.72
2019-02-23T08:49:42.507Z,28.55
2019-02-23T08:52:19.055Z,27.24
2019-02-23T08:54:53.605Z,27.24
2019-02-23T08:57:27.523Z,26.26
2019-02-23T09:00:02.553Z,24.64
2019-02-23T09:02:37.693Z,24.64
2019-02-23T09:05:11.864Z,26.37
2019-02-23T09:07:46.423Z,26.37
2019-02-23T09:10:21.324Z,29.95
2019-02-23T09:12:56.321Z,29.95
2019-02-23T09:15:30.980Z,30.89
2019-02-23T09:18:05.673Z,31.03
2019-02-23T09:20:39.453Z,29.69
2019-02-23T09:23:28.153Z,28.65
2019-02-23T09:26:14.066Z,25.81
2019-02-23T09:28:48.817Z,25.81
2019-02-23T09:31:23.535Z,24.93
2019-02-23T09:33:57.488Z,23.55
2019-02-23T09:36:32.466Z,24.29
2019-02-23T09:39:07.533Z,23.61
2019-02-23T09:41:42.777Z,23.61
2019-02-23T09:44:17.650Z,24.54
2019-02-23T09:46:52.311Z,22.83
2019-02-23T09:49:27.018Z,21.44
2019-02-23T09:52:07.090Z,21.45
2019-02-23T09:54:41.490Z,20.96
2019-02-23T09:57:16.134Z,20.31
2019-02-23T09:59:50.862Z,19.73
2019-02-23T10:02:25.705Z,18.09
2019-02-23T10:05:02.173Z,17.09
2019-02-23T10:07:36.869Z,17.04
2019-02-23T10:10:11.843Z,17.67
2019-02-23T10:12:47.352Z,17.20
2019-02-23T10:15:22.955Z,16.98
2019-02-23T10:17:57.611Z,17.77
2019-02-23T10:20:32.600Z,17.66
2019-02-23T10:23:07.308Z,16.91
2019-02-23T10:25:41.792Z,15.97
2019-02-23T10:28:16.882Z,17.02
2019-02-23T10:30:51.316Z,15.92
2019-02-23T10:33:26.123Z,16.56
2019-02-23T10:36:00.802Z,16.56
2019-02-23T10:38:35.550Z,16.70
2019-02-23T10:41:09.485Z,17.21
2019-02-23T10:43:43.267Z,16.34
2019-02-23T10:46:18.473Z,16.49
2019-02-23T10:48:53.067Z,14.72
2019-02-23T10:51:28.038Z,14.72
2019-02-23T10:54:02.803Z,13.90
2019-02-23T10:56:37.422Z,14.15
2019-02-23T10:59:12.034Z,13.62
2019-02-23T11:01:46.689Z,13.99
2019-02-23T11:04:21.610Z,13.81
2019-02-23T11:06:57.044Z,13.33
2019-02-23T11:09:33.635Z,14.01
2019-02-23T11:12:07.258Z,14.01
2019-02-23T11:14:42.100Z,14.15
2019-02-23T11:17:16.880Z,13.57
2019-02-23T11:19:51.681Z,13.12
2019-02-23T11:22:25.597Z,13.33
2019-02-23T11:24:59.421Z,13.14
2019-02-23T11:27:33.822Z,13.26
2019-02-23T11:30:10.305Z,11.87
2019-02-23T11:32:46.405Z,12.88
2019-02-23T11:35:21.068Z,12.96
2019-02-23T11:37:55.638Z,13.61
2019-02-23T11:40:32.475Z,12.24
2019-02-23T11:43:07.114Z,10.68
2019-02-23T11:45:45.988Z,10.68
2019-02-23T11:48:21.370Z,11.62
2019-02-23T11:50:56.017Z,11.24
2019-02-23T11:53:30.831Z,11.48
2019-02-23T11:56:07.126Z,11.46
2019-02-23T11:58:46.630Z,12.05
2019-02-23T12:01:20.497Z,11.12
2019-02-23T12:03:55.317Z,10.28
2019-02-23T12:06:30.870Z,10.28
2019-02-23T12:09:07.010Z,10.69
2019-02-23T12:11:41.562Z,9.19
2019-02-23T12:14:16.319Z,11.00
2019-02-23T12:16:51.314Z,11.00
2019-02-23T12:19:26.084Z,11.28
2019-02-23T12:22:12.079Z,10.36
2019-02-23T12:24:40.590Z,10.69
2019-02-23T12:27:15.316Z,9.88
2019-02-23T12:29:50.013Z,9.17
2019-02-23T12:32:24.633Z,9.56
2019-02-23T12:34:58.659Z,10.37
2019-02-23T12:37:32.506Z,11.28
2019-02-23T12:40:07.717Z,11.19
2019-02-23T12:42:43.884Z,11.19
2019-02-23T12:45:18.805Z,10.61
2019-02-23T12:47:54.023Z,9.98
2019-02-23T12:50:33.277Z,10.74
2019-02-23T12:53:08.895Z,10.92
2019-02-23T12:55:43.643Z,11.14
2019-02-23T12:58:19.782Z,11.16
2019-02-23T13:00:54.333Z,11.51
2019-02-23T13:03:29.136Z,12.17
2019-02-23T13:06:03.617Z,12.20
2019-02-23T13:09:26.012Z,12.33
2019-02-23T13:12:21.765Z,12.54
2019-02-23T13:15:51.965Z,13.34
2019-02-23T13:19:20.376Z,13.25
2019-02-23T13:22:18.918Z,12.72
2019-02-23T13:26:13.845Z,12.96
2019-02-23T13:30:08.553Z,13.29
2019-02-23T13:34:00.204Z,14.09
2019-02-23T13:37:37.965Z,14.09
2019-02-23T13:41:12.537Z,12.87
2019-02-23T13:44:55.313Z,13.20
2019-02-23T13:48:40.692Z,13.20
2019-02-23T13:52:48.894Z,13.15
2019-02-23T13:56:25.552Z,13.04
2019-02-23T13:59:54.848Z,12.77
2019-02-23T14:03:57.752Z,12.70
2019-02-23T14:07:35.854Z,12.16
2019-02-23T14:11:11.453Z,13.31
2019-02-23T14:14:33.635Z,13.47
2019-02-23T14:18:37.066Z,14.10
2019-02-23T14:22:40.321Z,14.10
2019-02-23T14:26:18.031Z,14.09
2019-02-23T14:30:03.839Z,13.76
2019-02-23T14:33:55.314Z,13.36
2019-02-23T14:37:32.570Z,12.68
2019-02-23T14:41:14.566Z,12.53
2019-02-23T14:45:10.972Z,13.04
2019-02-23T14:49:20.708Z,13.04
2019-02-23T14:53:19.157Z,13.48
2019-02-23T14:57:20.152Z,12.89
2019-02-23T15:00:52.962Z,13.12
2019-02-23T15:05:00.836Z,13.35
2019-02-23T15:08:45.606Z,13.80
2019-02-23T15:12:26.267Z,14.49
2019-02-23T15:15:39.105Z,14.12
2019-02-23T15:19:24.867Z,14.74
2019-02-23T15:23:21.890Z,14.42
2019-02-23T15:27:40.692Z,14.49
2019-02-23T15:31:50.065Z,14.55
2019-02-23T15:35:59.712Z,14.27
2019-02-23T15:39:15.521Z,14.72
2019-02-23T15:43:15.328Z,15.63
2019-02-23T15:47:20.325Z,15.63
2019-02-23T15:49:55.917Z,15.26
2019-02-23T15:52:30.919Z,15.15
2019-02-23T15:55:05.796Z,15.19
2019-02-23T15:57:40.643Z,15.28
2019-02-23T16:00:15.945Z,15.60
2019-02-23T16:02:50.845Z,15.60
2019-02-23T16:05:25.561Z,15.89
2019-02-23T16:08:00.459Z,15.97
2019-02-23T16:10:41.125Z,15.70
2019-02-23T16:13:15.853Z,15.70
2019-02-23T16:15:51.457Z,16.25
2019-02-23T16:18:26.329Z,16.13
2019-02-23T16:21:00.965Z,16.13
2019-02-23T16:23:36.565Z,16.13
2019-02-23T16:26:14.109Z,16.34
2019-02-23T16:28:48.951Z,16.34
2019-02-23T16:31:23.804Z,17.00
2019-02-23T16:33:58.575Z,16.50
2019-02-23T16:36:32.453Z,16.53
2019-02-23T16:39:10.315Z,16.68
2019-02-23T16:41:46.865Z,16.68
2019-02-23T16:44:21.522Z,17.12
2019-02-23T16:46:56.489Z,17.84
2019-02-23T16:49:30.664Z,17.84
2019-02-23T16:52:05.301Z,17.92
2019-02-23T16:54:40.045Z,17.11
2019-02-23T16:57:17.295Z,17.27
2019-02-23T16:59:51.306Z,16.90
2019-02-23T17:02:25.989Z,17.41
2019-02-23T17:05:00.866Z,17.70
2019-02-23T17:07:35.913Z,16.75
2019-02-23T17:10:10.733Z,16.67
2019-02-23T17:12:45.624Z,17.00
2019-02-23T17:15:19.914Z,16.76
2019-02-23T17:17:54.547Z,17.47
2019-02-23T17:20:29.367Z,18.92
2019-02-23T17:23:04.049Z,18.92
2019-02-23T17:25:38.833Z,19.33
2019-02-23T17:28:13.346Z,20.01
2019-02-23T17:30:47.878Z,20.28
2019-02-23T17:33:22.798Z,20.69
2019-02-23T17:35:57.778Z,21.21
2019-02-23T17:38:33.660Z,21.14
2019-02-23T17:41:08.103Z,21.18
2019-02-23T17:43:42.858Z,21.18
2019-02-23T17:46:17.568Z,20.99
2019-02-23T17:48:51.428Z,21.87
2019-02-23T17:51:26.605Z,21.87
2019-02-23T17:54:01.321Z,21.98
2019-02-23T17:56:37.713Z,22.41
2019-02-23T17:59:12.637Z,22.45
2019-02-23T18:01:47.661Z,21.97
2019-02-23T18:04:22.317Z,22.01
2019-02-23T18:06:57.147Z,22.03
2019-02-23T18:09:33.431Z,21.81
2019-02-23T18:12:08.548Z,22.56
2019-02-23T18:14:46.635Z,22.56
2019-02-23T18:17:23.324Z,22.94
2019-02-23T18:19:58.515Z,22.82
2019-02-23T18:22:37.355Z,23.00
2019-02-23T18:25:11.971Z,23.00
2019-02-23T18:27:46.594Z,22.56
2019-02-23T18:30:20.813Z,22.72
2019-02-23T18:32:55.783Z,23.27
2019-02-23T18:35:31.029Z,23.37
2019-02-23T18:38:06.735Z,23.64
2019-02-23T18:40:41.478Z,23.46
2019-02-23T18:43:16.457Z,23.19
2019-02-23T18:45:51.075Z,23.68
2019-02-23T18:48:25.816Z,23.68
2019-02-23T18:51:00.491Z,23.50
2019-02-23T18:53:41.685Z,23.66
2019-02-23T18:56:16.208Z,23.66
2019-02-23T18:58:51.020Z,23.94
2019-02-23T19:01:36.662Z,24.10
2019-02-23T19:04:12.297Z,24.45
2019-02-23T19:06:47.320Z,24.37
2019-02-23T19:09:22.023Z,24.37
2019-02-23T19:11:57.449Z,24.02
2019-02-23T19:14:32.311Z,24.48
2019-02-23T19:17:07.145Z,24.48
2019-02-23T19:19:44.586Z,24.60
2019-02-23T19:22:19.462Z,24.83
2019-02-23T19:24:54.444Z,25.32
2019-02-23T19:27:29.144Z,25.32
2019-02-23T19:30:04.171Z,25.88
2019-02-23T19:32:40.913Z,25.73
2019-02-23T19:35:15.769Z,25.98
2019-02-23T19:37:50.538Z,25.26
2019-02-23T19:40:25.061Z,25.69
2019-02-23T19:42:59.656Z,25.56
2019-02-23T19:45:33.647Z,25.12
2019-02-23T19:48:08.325Z,25.09
2019-02-23T19:50:50.544Z,25.34
2019-02-23T19:53:25.436Z,25.31
2019-02-23T19:56:02.648Z,26.01
2019-02-23T19:58:37.898Z,25.32
2019-02-23T20:01:13.039Z,25.24
2019-02-23T20:03:48.316Z,24.79
2019-02-23T20:06:23.171Z,25.56
2019-02-23T20:08:58.592Z,25.78
2019-02-23T20:11:32.992Z,24.78
2019-02-23T20:14:07.866Z,24.81
2019-02-23T20:16:42.542Z,25.05
2019-02-23T20:19:16.478Z,24.12
2019-02-23T20:21:51.016Z,24.36
2019-02-23T20:24:25.857Z,24.36
2019-02-23T20:27:00.618Z,25.06
2019-02-23T20:29:34.444Z,24.40
2019-02-23T20:32:09.181Z,24.04
2019-02-23T20:34:44.024Z,22.84
2019-02-23T20:37:18.704Z,23.51
2019-02-23T20:39:53.271Z,23.34
2019-02-23T20:42:28.394Z,23.27
2019-02-23T20:45:03.108Z,22.91
2019-02-23T20:47:39.863Z,22.40
2019-02-23T20:50:14.629Z,22.58
2019-02-23T20:52:48.589Z,21.70
2019-02-23T20:55:23.965Z,21.66
2019-02-23T20:57:59.989Z,21.47
2019-02-23T21:00:34.608Z,21.51
2019-02-23T21:03:11.264Z,21.18
2019-02-23T21:05:46.355Z,21.25
2019-02-23T21:08:21.101Z,21.31
2019-02-23T21:10:56.160Z,21.11
2019-02-23T21:13:30.841Z,21.11
2019-02-23T21:16:05.579Z,20.88
2019-02-23T21:18:40.340Z,20.91
2019-02-23T21:21:16.311Z,21.11
2019-02-23T21:23:51.467Z,21.05
2019-02-23T21:26:26.310Z,21.06
2019-02-23T21:29:01.091Z,21.49
2019-02-23T21:31:36.047Z,21.29
2019-02-23T21:34:12.246Z,21.70
2019-02-23T21:36:47.050Z,21.10
2019-02-23T21:39:22.305Z,21.29
2019-02-23T21:41:57.452Z,20.93
2019-02-23T21:44:32.164Z,21.07
2019-02-23T21:47:06.958Z,21.07
2019-02-23T21:49:41.582Z,21.16
2019-02-23T21:52:15.512Z,20.99
2019-02-23T21:54:50.319Z,20.82
2019-02-23T21:57:25.320Z,20.82
2019-02-23T22:00:00.331Z,20.58
2019-02-23T22:02:35.466Z,20.77
2019-02-23T22:05:12.653Z,21.02
2019-02-23T22:07:48.173Z,20.75
2019-02-23T22:10:25.644Z,20.75
2019-02-23T22:13:00.606Z,20.38
2019-02-23T22:15:34.870Z,20.52
2019-02-23T22:18:09.583Z,21.12
2019-02-23T22:20:43.508Z,21.43
2019-02-23T22:23:21.573Z,21.06
2019-02-23T22:25:56.663Z,21.40
2019-02-23T22:28:32.140Z,21.40
2019-02-23T22:31:07.148Z,21.25
2019-02-23T22:33:41.955Z,20.89
2019-02-23T22:36:16.845Z,21.28
2019-02-23T22:38:51.723Z,21.16
2019-02-23T22:41:27.491Z,21.12
2019-02-23T22:44:02.041Z,21.43
2019-02-23T22:46:36.676Z,21.31
2019-02-23T22:49:11.101Z,21.51
2019-02-23T22:51:46.989Z,21.51
2019-02-23T22:54:24.384Z,21.42
2019-02-23T22:57:00.550Z,20.79
2019-02-23T22:59:34.499Z,21.04
2019-02-23T23:02:09.122Z,21.08
2019-02-23T23:04:44.054Z,21.08
2019-02-23T23:07:18.817Z,21.29
2019-02-23T23:10:49.376Z,21.42
2019-02-23T23:13:25.127Z,21.32
2019-02-23T23:15:59.621Z,21.21
2019-02-23T23:18:35.274Z,21.04
2019-02-23T23:21:10.456Z,20.40
2019-02-23T23:23:45.163Z,20.74
2019-02-23T23:26:19.681Z,20.74
2019-02-23T23:28:54.797Z,20.40
2019-02-23T23:31:29.882Z,21.11
2019-02-23T23:34:04.500Z,20.95
2019-02-23T23:36:40.103Z,20.75
2019-02-23T23:39:14.847Z,20.75
2019-02-23T23:41:49.563Z,20.73
2019-02-23T23:44:24.344Z,20.65
2019-02-23T23:47:07.823Z,20.65
2019-02-23T23:49:42.552Z,21.00
2019-02-23T23:52:17.168Z,21.09
2019-02-23T23:54:51.628Z,21.09
2019-02-23T23:57:29.052Z,21.33
